Sovereign — 9HUE9 — position and weather

sailwx.info

Track history (hours):
 
Tides and Currents Weather Stations Pressure Air Temp Water Temp Dewpoint Dewpoint Depression Visibility Wind Speed Wind Dir Waves Ship Positions

Sovereign

Last reported at 2020-Jul-20 09:00 UTC. Time now 2020-Sep-25 17:03 UTC.
Position N 37°46' E 025°26'.
Warning: this ship's position is months out of date.

Length 269 m; draft 7.8 m.

Type: Passenger vessel. MMSI: 249539000.

Date/timePositionNaut miles runAvg speedWind from/ knotsBaromVisibWave heightAir tempDewpointWater temp
2020-Jul-20 09:00N 37°46' E 025°26'10715.1
2020-Jul-20 01:54N 36°33' E 023°47'4415.1
2020-Jul-19 22:58N 36°02' E 023°08'39215.6
2020-Jul-18 21:53N 35°49' E 015°04'18 1.8
2020-Jul-18 11:52N 35°51' E 014°42'0 0.0
2020-Jul-18 11:04N 35°52' E 014°42'0 0.0
2020-Jul-18 06:16N 35°52' E 014°42'0 0.0
2020-Jul-18 02:58N 35°52' E 014°42'0 0.0
2020-Jul-18 02:22N 35°52' E 014°42'0 0.0
2020-Jul-17 23:16N 35°52' E 014°42'0 0.0
2020-Jul-17 22:46N 35°52' E 014°42'0 0.0
2020-Jul-17 22:28N 35°52' E 014°42'0 0.0
2020-Jul-17 21:58N 35°52' E 014°42'0 0.0
2020-Jul-17 20:28N 35°52' E 014°42'0 0.0
2020-Jul-17 15:10N 35°51' E 014°42'0 0.5
2020-Jul-17 14:58N 35°52' E 014°42'0 0.0
2020-Jul-17 12:22N 35°52' E 014°42'0 0.0
2020-Jul-16 11:01N 35°52' E 014°42'0 0.0
2020-Jul-16 08:55N 35°52' E 014°42'0 0.0
2020-Jul-16 07:28N 35°52' E 014°42'  
2020-Jul-13 13:27N 35°49' E 014°32'0 0.0
2020-Jul-13 12:57N 35°49' E 014°32'0 0.0
2020-Jul-13 07:57N 35°49' E 014°32'17 0.4
2020-Jul-11 08:52N 35°56' E 014°51'0 0.0
2020-Jul-11 07:58N 35°56' E 014°51'0 0.0
2020-Jul-11 03:22N 35°56' E 014°51'0 0.0
2020-Jul-11 02:58N 35°56' E 014°51'0 0.0
2020-Jul-11 02:28N 35°56' E 014°51'0 0.0
2020-Jul-11 01:58N 35°56' E 014°51'0 0.0
2020-Jul-11 00:58N 35°56' E 014°51'0 0.0
2020-Jul-10 22:28N 35°56' E 014°51'0 0.0
2020-Jul-10 19:28N 35°56' E 014°51'0 0.0
2020-Jul-10 18:55N 35°56' E 014°51'0 0.0
2020-Jul-10 15:58N 35°56' E 014°51'0 0.0
2020-Jul-10 14:58N 35°56' E 014°51'0 0.0
2020-Jul-10 13:28N 35°56' E 014°51'0 0.0
2020-Jul-10 11:58N 35°56' E 014°51'0 0.0
2020-Jul-10 10:58N 35°56' E 014°51'  
Track history (hours):
 
Tides and Currents Weather Stations Pressure Air Temp Water Temp Dewpoint Dewpoint Depression Visibility Wind Speed Wind Dir Waves Ship Positions

Sovereign

Last reported at 2020-Jul-20 09:00 UTC. Time now 2020-Sep-25 17:03 UTC.
Position N 37°46' E 025°26'.
Warning: this ship's position is months out of date.

Length 269 m; draft 7.8 m.

Type: Passenger vessel. MMSI: 249539000.

Date/timePositionNaut miles runAvg speedWind from/ knotsBaromVisibWave heightAir tempDewpointWater temp
2020-Jul-20 09:00N 37°46' E 025°26'10715.1
2020-Jul-20 01:54N 36°33' E 023°47'4415.1
2020-Jul-19 22:58N 36°02' E 023°08'39215.6
2020-Jul-18 21:53N 35°49' E 015°04'18 1.8
2020-Jul-18 11:52N 35°51' E 014°42'0 0.0
2020-Jul-18 11:04N 35°52' E 014°42'0 0.0
2020-Jul-18 06:16N 35°52' E 014°42'0 0.0
2020-Jul-18 02:58N 35°52' E 014°42'0 0.0
2020-Jul-18 02:22N 35°52' E 014°42'0 0.0
2020-Jul-17 23:16N 35°52' E 014°42'0 0.0
2020-Jul-17 22:46N 35°52' E 014°42'0 0.0
2020-Jul-17 22:28N 35°52' E 014°42'0 0.0
2020-Jul-17 21:58N 35°52' E 014°42'0 0.0
2020-Jul-17 20:28N 35°52' E 014°42'0 0.0
2020-Jul-17 15:10N 35°51' E 014°42'0 0.5
2020-Jul-17 14:58N 35°52' E 014°42'0 0.0
2020-Jul-17 12:22N 35°52' E 014°42'0 0.0
2020-Jul-16 11:01N 35°52' E 014°42'0 0.0
2020-Jul-16 08:55N 35°52' E 014°42'0 0.0
2020-Jul-16 07:28N 35°52' E 014°42'  
2020-Jul-13 13:27N 35°49' E 014°32'0 0.0
2020-Jul-13 12:57N 35°49' E 014°32'0 0.0
2020-Jul-13 07:57N 35°49' E 014°32'17 0.4
2020-Jul-11 08:52N 35°56' E 014°51'0 0.0
2020-Jul-11 07:58N 35°56' E 014°51'0 0.0
2020-Jul-11 03:22N 35°56' E 014°51'0 0.0
2020-Jul-11 02:58N 35°56' E 014°51'0 0.0
2020-Jul-11 02:28N 35°56' E 014°51'0 0.0
2020-Jul-11 01:58N 35°56' E 014°51'0 0.0
2020-Jul-11 00:58N 35°56' E 014°51'0 0.0
2020-Jul-10 22:28N 35°56' E 014°51'0 0.0
2020-Jul-10 19:28N 35°56' E 014°51'0 0.0
2020-Jul-10 18:55N 35°56' E 014°51'0 0.0
2020-Jul-10 15:58N 35°56' E 014°51'0 0.0
2020-Jul-10 14:58N 35°56' E 014°51'0 0.0
2020-Jul-10 13:28N 35°56' E 014°51'0 0.0
2020-Jul-10 11:58N 35°56' E 014°51'0 0.0
2020-Jul-10 10:58N 35°56' E 014°51'  

Dump ship's entire track history